sensor_id;sensor_type;location;lat;lon;timestamp;P1;durP1;ratioP1;P2;durP2;ratioP2
46701;SDS011;33449;50.712;7.124;2023-05-19T00:01:28;9.68;;;3.95;;
46701;SDS011;33449;50.712;7.124;2023-05-19T00:03:56;8.73;;;3.65;;
46701;SDS011;33449;50.712;7.124;2023-05-19T00:06:25;7.93;;;4.15;;
46701;SDS011;33449;50.712;7.124;2023-05-19T00:08:58;12.52;;;4.40;;
46701;SDS011;33449;50.712;7.124;2023-05-19T00:11:26;11.93;;;3.97;;
46701;SDS011;33449;50.712;7.124;2023-05-19T00:13:55;8.38;;;3.85;;
46701;SDS011;33449;50.712;7.124;2023-05-19T00:16:23;10.57;;;3.72;;
46701;SDS011;33449;50.712;7.124;2023-05-19T00:18:51;10.73;;;4.03;;
46701;SDS011;33449;50.712;7.124;2023-05-19T00:21:20;18.88;;;3.25;;
46701;SDS011;33449;50.712;7.124;2023-05-19T00:23:47;9.45;;;3.58;;
46701;SDS011;33449;50.712;7.124;2023-05-19T00:26:15;9.27;;;3.55;;
46701;SDS011;33449;50.712;7.124;2023-05-19T00:28:43;10.73;;;3.67;;
46701;SDS011;33449;50.712;7.124;2023-05-19T00:31:10;7.05;;;2.67;;
46701;SDS011;33449;50.712;7.124;2023-05-19T00:33:38;11.93;;;4.03;;
46701;SDS011;33449;50.712;7.124;2023-05-19T00:36:10;11.15;;;3.47;;
46701;SDS011;33449;50.712;7.124;2023-05-19T00:38:37;14.00;;;3.97;;
46701;SDS011;33449;50.712;7.124;2023-05-19T00:41:05;10.30;;;3.38;;
46701;SDS011;33449;50.712;7.124;2023-05-19T00:43:33;6.80;;;3.13;;
46701;SDS011;33449;50.712;7.124;2023-05-19T00:46:01;11.50;;;3.10;;
46701;SDS011;33449;50.712;7.124;2023-05-19T00:48:29;9.73;;;4.05;;
46701;SDS011;33449;50.712;7.124;2023-05-19T00:50:59;5.45;;;3.00;;
46701;SDS011;33449;50.712;7.124;2023-05-19T00:53:32;11.10;;;3.03;;
46701;SDS011;33449;50.712;7.124;2023-05-19T00:56:00;9.20;;;3.92;;
46701;SDS011;33449;50.712;7.124;2023-05-19T00:58:29;7.13;;;3.38;;
46701;SDS011;33449;50.712;7.124;2023-05-19T01:00:58;6.78;;;3.00;;
46701;SDS011;33449;50.712;7.124;2023-05-19T01:03:34;7.53;;;2.88;;
46701;SDS011;33449;50.712;7.124;2023-05-19T01:06:02;9.90;;;3.67;;
46701;SDS011;33449;50.712;7.124;2023-05-19T01:08:34;5.88;;;3.38;;
46701;SDS011;33449;50.712;7.124;2023-05-19T01:11:02;8.75;;;3.28;;
46701;SDS011;33449;50.712;7.124;2023-05-19T01:13:29;9.02;;;3.17;;
46701;SDS011;33449;50.712;7.124;2023-05-19T01:16:13;10.32;;;3.95;;
46701;SDS011;33449;50.712;7.124;2023-05-19T01:21:25;6.57;;;3.33;;
46701;SDS011;33449;50.712;7.124;2023-05-19T01:31:44;10.50;;;3.75;;
46701;SDS011;33449;50.712;7.124;2023-05-19T01:34:13;13.80;;;4.63;;
46701;SDS011;33449;50.712;7.124;2023-05-19T01:36:43;11.45;;;3.97;;
46701;SDS011;33449;50.712;7.124;2023-05-19T01:39:10;8.13;;;3.83;;
46701;SDS011;33449;50.712;7.124;2023-05-19T01:41:39;11.98;;;4.07;;
46701;SDS011;33449;50.712;7.124;2023-05-19T01:44:07;7.57;;;4.60;;
46701;SDS011;33449;50.712;7.124;2023-05-19T01:46:36;13.30;;;4.65;;
46701;SDS011;33449;50.712;7.124;2023-05-19T01:49:04;13.32;;;3.97;;
46701;SDS011;33449;50.712;7.124;2023-05-19T01:51:33;9.73;;;4.13;;
46701;SDS011;33449;50.712;7.124;2023-05-19T01:54:01;10.52;;;4.28;;
46701;SDS011;33449;50.712;7.124;2023-05-19T01:56:37;10.80;;;4.13;;
46701;SDS011;33449;50.712;7.124;2023-05-19T02:01:56;10.57;;;4.60;;
46701;SDS011;33449;50.712;7.124;2023-05-19T02:07:08;8.20;;;4.65;;
46701;SDS011;33449;50.712;7.124;2023-05-19T02:17:16;10.68;;;3.88;;
46701;SDS011;33449;50.712;7.124;2023-05-19T02:19:44;7.60;;;4.40;;
46701;SDS011;33449;50.712;7.124;2023-05-19T02:22:11;14.10;;;4.03;;
46701;SDS011;33449;50.712;7.124;2023-05-19T02:24:38;12.25;;;4.05;;
46701;SDS011;33449;50.712;7.124;2023-05-19T02:27:07;8.85;;;5.28;;
46701;SDS011;33449;50.712;7.124;2023-05-19T02:29:34;6.82;;;3.47;;
46701;SDS011;33449;50.712;7.124;2023-05-19T02:32:04;10.25;;;3.97;;
46701;SDS011;33449;50.712;7.124;2023-05-19T02:34:33;20.52;;;5.22;;
46701;SDS011;33449;50.712;7.124;2023-05-19T02:37:01;7.35;;;4.00;;
46701;SDS011;33449;50.712;7.124;2023-05-19T02:39:29;9.95;;;4.10;;
46701;SDS011;33449;50.712;7.124;2023-05-19T02:42:03;14.80;;;4.72;;
46701;SDS011;33449;50.712;7.124;2023-05-19T02:46:59;8.35;;;3.70;;
46701;SDS011;33449;50.712;7.124;2023-05-19T02:49:27;10.98;;;4.55;;
46701;SDS011;33449;50.712;7.124;2023-05-19T02:52:01;11.25;;;4.35;;
46701;SDS011;33449;50.712;7.124;2023-05-19T02:54:29;9.77;;;4.10;;
46701;SDS011;33449;50.712;7.124;2023-05-19T02:57:00;9.82;;;4.80;;
46701;SDS011;33449;50.712;7.124;2023-05-19T03:01:57;16.80;;;4.93;;
46701;SDS011;33449;50.712;7.124;2023-05-19T03:04:26;9.70;;;4.05;;
46701;SDS011;33449;50.712;7.124;2023-05-19T03:06:54;9.50;;;4.20;;
46701;SDS011;33449;50.712;7.124;2023-05-19T03:09:21;8.95;;;3.97;;
46701;SDS011;33449;50.712;7.124;2023-05-19T03:11:49;9.13;;;4.18;;
46701;SDS011;33449;50.712;7.124;2023-05-19T03:14:16;10.18;;;4.28;;
46701;SDS011;33449;50.712;7.124;2023-05-19T03:16:44;7.00;;;4.18;;
46701;SDS011;33449;50.712;7.124;2023-05-19T03:19:12;9.50;;;4.15;;
46701;SDS011;33449;50.712;7.124;2023-05-19T03:21:41;12.47;;;4.47;;
46701;SDS011;33449;50.712;7.124;2023-05-19T03:24:09;12.35;;;3.83;;
46701;SDS011;33449;50.712;7.124;2023-05-19T03:26:36;8.68;;;4.20;;
46701;SDS011;33449;50.712;7.124;2023-05-19T03:29:03;12.57;;;4.70;;
46701;SDS011;33449;50.712;7.124;2023-05-19T03:31:35;10.05;;;4.35;;
46701;SDS011;33449;50.712;7.124;2023-05-19T03:34:05;15.85;;;4.70;;
46701;SDS011;33449;50.712;7.124;2023-05-19T03:36:33;13.30;;;4.25;;
46701;SDS011;33449;50.712;7.124;2023-05-19T03:39:05;12.77;;;5.22;;
46701;SDS011;33449;50.712;7.124;2023-05-19T03:41:33;13.88;;;5.88;;
46701;SDS011;33449;50.712;7.124;2023-05-19T03:44:01;9.68;;;4.18;;
46701;SDS011;33449;50.712;7.124;2023-05-19T03:46:31;11.52;;;4.30;;
46701;SDS011;33449;50.712;7.124;2023-05-19T03:48:58;11.10;;;4.28;;
46701;SDS011;33449;50.712;7.124;2023-05-19T03:51:28;9.00;;;3.92;;
46701;SDS011;33449;50.712;7.124;2023-05-19T03:53:56;8.38;;;4.75;;
46701;SDS011;33449;50.712;7.124;2023-05-19T03:56:23;13.55;;;4.70;;
46701;SDS011;33449;50.712;7.124;2023-05-19T03:58:53;6.82;;;3.95;;
46701;SDS011;33449;50.712;7.124;2023-05-19T04:01:20;6.72;;;4.43;;
46701;SDS011;33449;50.712;7.124;2023-05-19T04:03:48;11.70;;;3.80;;
46701;SDS011;33449;50.712;7.124;2023-05-19T04:06:16;15.32;;;4.60;;
46701;SDS011;33449;50.712;7.124;2023-05-19T04:08:44;8.07;;;4.47;;
46701;SDS011;33449;50.712;7.124;2023-05-19T04:11:11;10.60;;;5.20;;
46701;SDS011;33449;50.712;7.124;2023-05-19T04:13:42;9.60;;;4.78;;
46701;SDS011;33449;50.712;7.124;2023-05-19T04:16:10;11.65;;;5.10;;
46701;SDS011;33449;50.712;7.124;2023-05-19T04:18:38;6.60;;;4.45;;
46701;SDS011;33449;50.712;7.124;2023-05-19T04:21:07;10.88;;;4.53;;
46701;SDS011;33449;50.712;7.124;2023-05-19T04:23:35;12.02;;;5.47;;
46701;SDS011;33449;50.712;7.124;2023-05-19T04:26:04;9.90;;;4.53;;
46701;SDS011;33449;50.712;7.124;2023-05-19T04:31:03;10.07;;;5.10;;
46701;SDS011;33449;50.712;7.124;2023-05-19T04:33:36;12.35;;;5.50;;
46701;SDS011;33449;50.712;7.124;2023-05-19T04:36:04;8.95;;;4.80;;
46701;SDS011;33449;50.712;7.124;2023-05-19T04:38:34;8.43;;;4.28;;
46701;SDS011;33449;50.712;7.124;2023-05-19T04:41:02;12.18;;;4.97;;
46701;SDS011;33449;50.712;7.124;2023-05-19T04:43:32;12.27;;;5.78;;
46701;SDS011;33449;50.712;7.124;2023-05-19T04:46:13;11.40;;;5.30;;
46701;SDS011;33449;50.712;7.124;2023-05-19T04:48:41;13.05;;;5.10;;
46701;SDS011;33449;50.712;7.124;2023-05-19T04:51:10;10.07;;;4.60;;
46701;SDS011;33449;50.712;7.124;2023-05-19T04:53:41;10.53;;;4.80;;
46701;SDS011;33449;50.712;7.124;2023-05-19T04:56:09;11.63;;;4.60;;
46701;SDS011;33449;50.712;7.124;2023-05-19T04:58:41;11.35;;;5.30;;
46701;SDS011;33449;50.712;7.124;2023-05-19T05:01:10;9.35;;;4.72;;
46701;SDS011;33449;50.712;7.124;2023-05-19T05:03:39;12.48;;;5.30;;
46701;SDS011;33449;50.712;7.124;2023-05-19T05:06:09;8.68;;;4.63;;
46701;SDS011;33449;50.712;7.124;2023-05-19T05:08:37;16.13;;;4.68;;
46701;SDS011;33449;50.712;7.124;2023-05-19T05:11:15;13.38;;;4.90;;
46701;SDS011;33449;50.712;7.124;2023-05-19T05:13:44;18.35;;;5.35;;
46701;SDS011;33449;50.712;7.124;2023-05-19T05:16:12;12.05;;;5.18;;
46701;SDS011;33449;50.712;7.124;2023-05-19T05:18:40;11.38;;;5.30;;
46701;SDS011;33449;50.712;7.124;2023-05-19T05:21:10;11.00;;;5.55;;
46701;SDS011;33449;50.712;7.124;2023-05-19T05:23:40;12.95;;;5.43;;
46701;SDS011;33449;50.712;7.124;2023-05-19T05:26:11;12.35;;;4.70;;
46701;SDS011;33449;50.712;7.124;2023-05-19T05:31:11;14.70;;;4.70;;
46701;SDS011;33449;50.712;7.124;2023-05-19T05:33:40;16.35;;;4.80;;
46701;SDS011;33449;50.712;7.124;2023-05-19T05:36:09;13.38;;;5.10;;
46701;SDS011;33449;50.712;7.124;2023-05-19T05:38:36;12.45;;;4.90;;
46701;SDS011;33449;50.712;7.124;2023-05-19T05:41:04;15.50;;;4.97;;
46701;SDS011;33449;50.712;7.124;2023-05-19T05:43:31;9.48;;;5.03;;
46701;SDS011;33449;50.712;7.124;2023-05-19T05:45:59;10.75;;;4.95;;
46701;SDS011;33449;50.712;7.124;2023-05-19T05:48:26;11.13;;;5.43;;
46701;SDS011;33449;50.712;7.124;2023-05-19T05:50:56;13.70;;;4.50;;
46701;SDS011;33449;50.712;7.124;2023-05-19T05:53:29;8.52;;;4.57;;
46701;SDS011;33449;50.712;7.124;2023-05-19T05:55:58;11.90;;;4.47;;
46701;SDS011;33449;50.712;7.124;2023-05-19T05:58:26;14.27;;;4.80;;
46701;SDS011;33449;50.712;7.124;2023-05-19T06:00:54;11.68;;;4.22;;
46701;SDS011;33449;50.712;7.124;2023-05-19T06:05:53;10.82;;;4.35;;
46701;SDS011;33449;50.712;7.124;2023-05-19T06:08:22;11.23;;;4.07;;
46701;SDS011;33449;50.712;7.124;2023-05-19T06:10:50;16.52;;;5.05;;
46701;SDS011;33449;50.712;7.124;2023-05-19T06:18:31;11.25;;;3.75;;
46701;SDS011;33449;50.712;7.124;2023-05-19T06:21:01;12.82;;;3.60;;
46701;SDS011;33449;50.712;7.124;2023-05-19T06:23:29;11.50;;;3.92;;
46701;SDS011;33449;50.712;7.124;2023-05-19T06:50:34;6.07;;;3.05;;
46701;SDS011;33449;50.712;7.124;2023-05-19T06:53:01;15.13;;;3.97;;
46701;SDS011;33449;50.712;7.124;2023-05-19T06:55:31;6.82;;;2.85;;
46701;SDS011;33449;50.712;7.124;2023-05-19T06:58:04;6.40;;;2.95;;
46701;SDS011;33449;50.712;7.124;2023-05-19T07:00:31;9.23;;;2.70;;
46701;SDS011;33449;50.712;7.124;2023-05-19T07:05:31;11.10;;;2.75;;
46701;SDS011;33449;50.712;7.124;2023-05-19T07:07:59;15.00;;;3.28;;
46701;SDS011;33449;50.712;7.124;2023-05-19T07:13:06;9.00;;;2.92;;
46701;SDS011;33449;50.712;7.124;2023-05-19T07:15:37;9.82;;;2.67;;
46701;SDS011;33449;50.712;7.124;2023-05-19T07:18:12;6.80;;;2.88;;
46701;SDS011;33449;50.712;7.124;2023-05-19T07:34:16;19.45;;;3.00;;
46701;SDS011;33449;50.712;7.124;2023-05-19T07:36:44;9.35;;;2.95;;
46701;SDS011;33449;50.712;7.124;2023-05-19T07:39:11;6.40;;;2.80;;
46701;SDS011;33449;50.712;7.124;2023-05-19T07:41:39;10.50;;;2.92;;
46701;SDS011;33449;50.712;7.124;2023-05-19T07:49:28;6.78;;;2.38;;
46701;SDS011;33449;50.712;7.124;2023-05-19T07:52:11;9.80;;;2.63;;
46701;SDS011;33449;50.712;7.124;2023-05-19T07:55:06;13.45;;;2.70;;
46701;SDS011;33449;50.712;7.124;2023-05-19T07:58:11;8.57;;;2.33;;
46701;SDS011;33449;50.712;7.124;2023-05-19T08:00:38;4.78;;;2.10;;
46701;SDS011;33449;50.712;7.124;2023-05-19T08:03:08;11.83;;;2.90;;
46701;SDS011;33449;50.712;7.124;2023-05-19T08:05:36;7.95;;;2.40;;
46701;SDS011;33449;50.712;7.124;2023-05-19T08:08:03;8.75;;;2.60;;
46701;SDS011;33449;50.712;7.124;2023-05-19T08:10:30;6.10;;;2.08;;
46701;SDS011;33449;50.712;7.124;2023-05-19T08:12:58;12.63;;;2.58;;
46701;SDS011;33449;50.712;7.124;2023-05-19T08:15:25;5.75;;;2.10;;
46701;SDS011;33449;50.712;7.124;2023-05-19T08:17:52;8.32;;;2.30;;
46701;SDS011;33449;50.712;7.124;2023-05-19T08:22:49;6.57;;;2.30;;
46701;SDS011;33449;50.712;7.124;2023-05-19T08:25:17;9.02;;;3.15;;
46701;SDS011;33449;50.712;7.124;2023-05-19T08:27:44;6.45;;;2.53;;
46701;SDS011;33449;50.712;7.124;2023-05-19T08:30:12;5.28;;;2.08;;
46701;SDS011;33449;50.712;7.124;2023-05-19T08:32:39;8.95;;;2.80;;
46701;SDS011;33449;50.712;7.124;2023-05-19T08:35:06;5.45;;;2.08;;
46701;SDS011;33449;50.712;7.124;2023-05-19T08:37:35;9.05;;;2.75;;
46701;SDS011;33449;50.712;7.124;2023-05-19T08:40:06;12.05;;;2.08;;
46701;SDS011;33449;50.712;7.124;2023-05-19T08:42:34;7.03;;;1.98;;
46701;SDS011;33449;50.712;7.124;2023-05-19T08:45:02;11.73;;;3.17;;
46701;SDS011;33449;50.712;7.124;2023-05-19T08:47:30;8.30;;;2.75;;
46701;SDS011;33449;50.712;7.124;2023-05-19T08:50:01;7.85;;;2.15;;
46701;SDS011;33449;50.712;7.124;2023-05-19T08:52:31;4.68;;;2.20;;
46701;SDS011;33449;50.712;7.124;2023-05-19T08:55:20;7.03;;;2.30;;
46701;SDS011;33449;50.712;7.124;2023-05-19T08:57:51;8.27;;;2.50;;
46701;SDS011;33449;50.712;7.124;2023-05-19T09:00:19;11.52;;;2.90;;
46701;SDS011;33449;50.712;7.124;2023-05-19T09:02:47;13.50;;;3.65;;
46701;SDS011;33449;50.712;7.124;2023-05-19T09:05:33;9.90;;;3.05;;
46701;SDS011;33449;50.712;7.124;2023-05-19T09:08:01;6.38;;;2.10;;
46701;SDS011;33449;50.712;7.124;2023-05-19T09:10:29;9.68;;;2.63;;
46701;SDS011;33449;50.712;7.124;2023-05-19T09:12:56;8.48;;;2.65;;
46701;SDS011;33449;50.712;7.124;2023-05-19T09:15:27;5.15;;;1.92;;
46701;SDS011;33449;50.712;7.124;2023-05-19T09:18:15;16.23;;;2.20;;
46701;SDS011;33449;50.712;7.124;2023-05-19T09:20:42;6.65;;;1.70;;
46701;SDS011;33449;50.712;7.124;2023-05-19T09:23:13;8.80;;;2.33;;
46701;SDS011;33449;50.712;7.124;2023-05-19T09:25:48;7.90;;;1.63;;
46701;SDS011;33449;50.712;7.124;2023-05-19T09:28:31;3.88;;;1.60;;
46701;SDS011;33449;50.712;7.124;2023-05-19T09:31:02;11.60;;;1.92;;
46701;SDS011;33449;50.712;7.124;2023-05-19T09:33:32;7.13;;;1.50;;
46701;SDS011;33449;50.712;7.124;2023-05-19T09:36:00;8.45;;;1.90;;
46701;SDS011;33449;50.712;7.124;2023-05-19T09:38:28;3.92;;;1.80;;
46701;SDS011;33449;50.712;7.124;2023-05-19T09:40:56;6.80;;;2.65;;
46701;SDS011;33449;50.712;7.124;2023-05-19T09:43:30;7.15;;;1.50;;
46701;SDS011;33449;50.712;7.124;2023-05-19T09:46:07;4.90;;;2.38;;
46701;SDS011;33449;50.712;7.124;2023-05-19T09:48:38;8.13;;;1.90;;
46701;SDS011;33449;50.712;7.124;2023-05-19T09:51:06;10.68;;;2.58;;
46701;SDS011;33449;50.712;7.124;2023-05-19T09:53:36;6.75;;;1.92;;
46701;SDS011;33449;50.712;7.124;2023-05-19T09:56:04;9.45;;;3.05;;
46701;SDS011;33449;50.712;7.124;2023-05-19T09:58:35;5.90;;;2.15;;
46701;SDS011;33449;50.712;7.124;2023-05-19T10:01:03;6.50;;;1.83;;
46701;SDS011;33449;50.712;7.124;2023-05-19T10:06:03;6.05;;;1.70;;
46701;SDS011;33449;50.712;7.124;2023-05-19T10:08:32;4.80;;;1.95;;
46701;SDS011;33449;50.712;7.124;2023-05-19T10:11:07;6.55;;;1.70;;
46701;SDS011;33449;50.712;7.124;2023-05-19T10:13:36;8.27;;;2.75;;
46701;SDS011;33449;50.712;7.124;2023-05-19T10:16:04;6.40;;;1.65;;
46701;SDS011;33449;50.712;7.124;2023-05-19T10:18:32;7.53;;;1.67;;
46701;SDS011;33449;50.712;7.124;2023-05-19T10:21:04;5.47;;;1.80;;
46701;SDS011;33449;50.712;7.124;2023-05-19T10:23:32;4.68;;;1.55;;
46701;SDS011;33449;50.712;7.124;2023-05-19T10:26:00;7.60;;;2.17;;
46701;SDS011;33449;50.712;7.124;2023-05-19T10:28:36;7.18;;;1.85;;
46701;SDS011;33449;50.712;7.124;2023-05-19T10:31:05;6.07;;;1.70;;
46701;SDS011;33449;50.712;7.124;2023-05-19T10:38:58;5.03;;;1.33;;
46701;SDS011;33449;50.712;7.124;2023-05-19T10:44:08;7.57;;;1.90;;
46701;SDS011;33449;50.712;7.124;2023-05-19T10:46:36;6.50;;;1.38;;
46701;SDS011;33449;50.712;7.124;2023-05-19T10:49:07;6.10;;;1.85;;
46701;SDS011;33449;50.712;7.124;2023-05-19T10:51:34;6.35;;;2.25;;
46701;SDS011;33449;50.712;7.124;2023-05-19T10:54:12;7.78;;;2.15;;
46701;SDS011;33449;50.712;7.124;2023-05-19T10:56:42;4.37;;;1.37;;
46701;SDS011;33449;50.712;7.124;2023-05-19T11:05:12;7.47;;;1.95;;
46701;SDS011;33449;50.712;7.124;2023-05-19T11:07:40;10.43;;;2.05;;
46701;SDS011;33449;50.712;7.124;2023-05-19T11:10:13;4.40;;;1.65;;
46701;SDS011;33449;50.712;7.124;2023-05-19T11:12:49;9.15;;;1.80;;
46701;SDS011;33449;50.712;7.124;2023-05-19T11:15:17;7.60;;;2.10;;
46701;SDS011;33449;50.712;7.124;2023-05-19T11:17:50;5.15;;;1.85;;
46701;SDS011;33449;50.712;7.124;2023-05-19T11:20:22;7.38;;;1.77;;
46701;SDS011;33449;50.712;7.124;2023-05-19T11:23:00;5.15;;;2.13;;
46701;SDS011;33449;50.712;7.124;2023-05-19T11:25:44;7.28;;;1.98;;
46701;SDS011;33449;50.712;7.124;2023-05-19T11:28:16;5.60;;;1.98;;
46701;SDS011;33449;50.712;7.124;2023-05-19T11:30:46;4.55;;;1.48;;
46701;SDS011;33449;50.712;7.124;2023-05-19T11:33:20;3.95;;;1.45;;
46701;SDS011;33449;50.712;7.124;2023-05-19T11:35:53;7.63;;;1.65;;
46701;SDS011;33449;50.712;7.124;2023-05-19T11:38:27;4.90;;;1.42;;
46701;SDS011;33449;50.712;7.124;2023-05-19T11:40:56;7.20;;;2.03;;
46701;SDS011;33449;50.712;7.124;2023-05-19T11:43:25;7.43;;;1.92;;
46701;SDS011;33449;50.712;7.124;2023-05-19T11:45:53;7.97;;;1.48;;
46701;SDS011;33449;50.712;7.124;2023-05-19T11:48:21;3.83;;;1.50;;
46701;SDS011;33449;50.712;7.124;2023-05-19T11:50:50;5.72;;;2.08;;
46701;SDS011;33449;50.712;7.124;2023-05-19T11:53:30;6.20;;;1.45;;
46701;SDS011;33449;50.712;7.124;2023-05-19T11:56:03;2.95;;;1.10;;
46701;SDS011;33449;50.712;7.124;2023-05-19T11:58:35;4.13;;;1.35;;
46701;SDS011;33449;50.712;7.124;2023-05-19T12:01:04;5.13;;;1.60;;
46701;SDS011;33449;50.712;7.124;2023-05-19T12:06:02;3.97;;;1.35;;
46701;SDS011;33449;50.712;7.124;2023-05-19T12:08:31;8.10;;;2.05;;
46701;SDS011;33449;50.712;7.124;2023-05-19T12:10:59;7.80;;;1.98;;
46701;SDS011;33449;50.712;7.124;2023-05-19T12:13:27;4.60;;;1.60;;
46701;SDS011;33449;50.712;7.124;2023-05-19T12:15:58;5.35;;;1.85;;
46701;SDS011;33449;50.712;7.124;2023-05-19T12:18:28;5.25;;;1.33;;
46701;SDS011;33449;50.712;7.124;2023-05-19T12:20:59;4.32;;;1.45;;
46701;SDS011;33449;50.712;7.124;2023-05-19T12:23:27;5.35;;;2.03;;
46701;SDS011;33449;50.712;7.124;2023-05-19T12:25:57;4.43;;;1.40;;
46701;SDS011;33449;50.712;7.124;2023-05-19T12:28:30;4.03;;;1.45;;
46701;SDS011;33449;50.712;7.124;2023-05-19T12:30:58;3.97;;;1.25;;
46701;SDS011;33449;50.712;7.124;2023-05-19T12:33:27;6.97;;;1.83;;
46701;SDS011;33449;50.712;7.124;2023-05-19T12:35:58;4.90;;;1.38;;
46701;SDS011;33449;50.712;7.124;2023-05-19T12:38:27;7.03;;;1.70;;
46701;SDS011;33449;50.712;7.124;2023-05-19T12:41:13;5.70;;;1.70;;
46701;SDS011;33449;50.712;7.124;2023-05-19T12:43:41;6.28;;;2.17;;
46701;SDS011;33449;50.712;7.124;2023-05-19T12:46:11;4.63;;;1.40;;
46701;SDS011;33449;50.712;7.124;2023-05-19T12:48:39;7.18;;;2.05;;
46701;SDS011;33449;50.712;7.124;2023-05-19T12:51:19;4.85;;;1.50;;
46701;SDS011;33449;50.712;7.124;2023-05-19T12:53:49;10.80;;;2.10;;
46701;SDS011;33449;50.712;7.124;2023-05-19T12:56:24;7.10;;;2.20;;
46701;SDS011;33449;50.712;7.124;2023-05-19T12:58:55;4.03;;;1.58;;
46701;SDS011;33449;50.712;7.124;2023-05-19T13:01:38;6.75;;;1.52;;
46701;SDS011;33449;50.712;7.124;2023-05-19T13:04:20;5.25;;;1.92;;
46701;SDS011;33449;50.712;7.124;2023-05-19T13:06:50;10.07;;;2.33;;
46701;SDS011;33449;50.712;7.124;2023-05-19T13:09:18;4.50;;;1.50;;
46701;SDS011;33449;50.712;7.124;2023-05-19T13:11:48;4.07;;;1.52;;
46701;SDS011;33449;50.712;7.124;2023-05-19T13:14:19;3.70;;;1.40;;
46701;SDS011;33449;50.712;7.124;2023-05-19T13:16:46;6.40;;;1.40;;
46701;SDS011;33449;50.712;7.124;2023-05-19T13:19:14;3.25;;;1.30;;
46701;SDS011;33449;50.712;7.124;2023-05-19T13:21:50;6.55;;;1.50;;
46701;SDS011;33449;50.712;7.124;2023-05-19T13:24:17;4.15;;;1.30;;
46701;SDS011;33449;50.712;7.124;2023-05-19T13:26:45;5.18;;;1.23;;
46701;SDS011;33449;50.712;7.124;2023-05-19T13:29:13;6.47;;;2.15;;
46701;SDS011;33449;50.712;7.124;2023-05-19T13:31:40;6.93;;;1.98;;
46701;SDS011;33449;50.712;7.124;2023-05-19T13:34:07;2.72;;;1.13;;
46701;SDS011;33449;50.712;7.124;2023-05-19T13:36:34;4.03;;;1.52;;
46701;SDS011;33449;50.712;7.124;2023-05-19T13:39:02;3.47;;;1.30;;
46701;SDS011;33449;50.712;7.124;2023-05-19T13:41:29;10.38;;;1.85;;
46701;SDS011;33449;50.712;7.124;2023-05-19T13:43:57;6.03;;;1.77;;
46701;SDS011;33449;50.712;7.124;2023-05-19T13:46:24;5.93;;;1.70;;
46701;SDS011;33449;50.712;7.124;2023-05-19T13:49:09;5.72;;;1.33;;
46701;SDS011;33449;50.712;7.124;2023-05-19T13:51:41;4.10;;;1.50;;
46701;SDS011;33449;50.712;7.124;2023-05-19T13:54:09;4.30;;;1.95;;
46701;SDS011;33449;50.712;7.124;2023-05-19T13:56:36;4.20;;;1.30;;
46701;SDS011;33449;50.712;7.124;2023-05-19T13:59:03;9.75;;;1.90;;
46701;SDS011;33449;50.712;7.124;2023-05-19T14:01:31;5.03;;;1.75;;
46701;SDS011;33449;50.712;7.124;2023-05-19T14:03:58;8.60;;;1.70;;
46701;SDS011;33449;50.712;7.124;2023-05-19T14:06:26;4.60;;;1.80;;
46701;SDS011;33449;50.712;7.124;2023-05-19T14:08:53;5.35;;;1.83;;
46701;SDS011;33449;50.712;7.124;2023-05-19T14:11:20;3.47;;;1.30;;
46701;SDS011;33449;50.712;7.124;2023-05-19T14:13:48;6.82;;;1.73;;
46701;SDS011;33449;50.712;7.124;2023-05-19T14:16:18;6.88;;;1.83;;
46701;SDS011;33449;50.712;7.124;2023-05-19T14:18:48;3.22;;;1.40;;
46701;SDS011;33449;50.712;7.124;2023-05-19T14:21:15;5.57;;;1.65;;
46701;SDS011;33449;50.712;7.124;2023-05-19T14:23:42;3.17;;;1.40;;
46701;SDS011;33449;50.712;7.124;2023-05-19T14:26:09;4.43;;;1.23;;
46701;SDS011;33449;50.712;7.124;2023-05-19T14:28:36;4.65;;;1.27;;
46701;SDS011;33449;50.712;7.124;2023-05-19T14:36:21;3.40;;;1.80;;
46701;SDS011;33449;50.712;7.124;2023-05-19T14:38:48;4.95;;;1.52;;
46701;SDS011;33449;50.712;7.124;2023-05-19T14:41:16;3.25;;;1.40;;
46701;SDS011;33449;50.712;7.124;2023-05-19T14:43:43;4.50;;;1.10;;
46701;SDS011;33449;50.712;7.124;2023-05-19T14:48:40;3.40;;;1.42;;
46701;SDS011;33449;50.712;7.124;2023-05-19T14:51:07;2.45;;;1.15;;
46701;SDS011;33449;50.712;7.124;2023-05-19T14:53:35;3.60;;;1.45;;
46701;SDS011;33449;50.712;7.124;2023-05-19T14:56:02;5.82;;;1.35;;
46701;SDS011;33449;50.712;7.124;2023-05-19T14:58:31;4.07;;;1.42;;
46701;SDS011;33449;50.712;7.124;2023-05-19T15:00:58;4.75;;;1.50;;
46701;SDS011;33449;50.712;7.124;2023-05-19T15:03:26;5.55;;;1.38;;
46701;SDS011;33449;50.712;7.124;2023-05-19T15:05:53;5.18;;;1.35;;
46701;SDS011;33449;50.712;7.124;2023-05-19T15:08:20;4.13;;;1.75;;
46701;SDS011;33449;50.712;7.124;2023-05-19T15:10:47;3.28;;;1.38;;
46701;SDS011;33449;50.712;7.124;2023-05-19T15:13:15;3.85;;;1.40;;
46701;SDS011;33449;50.712;7.124;2023-05-19T15:15:44;3.67;;;1.35;;
46701;SDS011;33449;50.712;7.124;2023-05-19T15:18:11;6.93;;;1.73;;
46701;SDS011;33449;50.712;7.124;2023-05-19T15:20:42;3.78;;;1.63;;
46701;SDS011;33449;50.712;7.124;2023-05-19T15:23:09;2.80;;;1.30;;
46701;SDS011;33449;50.712;7.124;2023-05-19T15:25:36;5.07;;;1.33;;
46701;SDS011;33449;50.712;7.124;2023-05-19T15:28:03;5.78;;;1.60;;
46701;SDS011;33449;50.712;7.124;2023-05-19T15:30:31;4.25;;;1.30;;
46701;SDS011;33449;50.712;7.124;2023-05-19T15:32:58;4.30;;;1.45;;
46701;SDS011;33449;50.712;7.124;2023-05-19T15:35:32;2.80;;;1.30;;
46701;SDS011;33449;50.712;7.124;2023-05-19T15:37:59;3.75;;;1.50;;
46701;SDS011;33449;50.712;7.124;2023-05-19T15:40:31;4.90;;;1.60;;
46701;SDS011;33449;50.712;7.124;2023-05-19T15:42:59;5.60;;;1.67;;
46701;SDS011;33449;50.712;7.124;2023-05-19T15:45:26;7.57;;;1.50;;
46701;SDS011;33449;50.712;7.124;2023-05-19T15:47:53;3.05;;;1.48;;
46701;SDS011;33449;50.712;7.124;2023-05-19T15:50:21;2.20;;;1.30;;
46701;SDS011;33449;50.712;7.124;2023-05-19T15:52:48;3.88;;;1.42;;
46701;SDS011;33449;50.712;7.124;2023-05-19T15:55:15;3.97;;;1.60;;
46701;SDS011;33449;50.712;7.124;2023-05-19T15:57:42;2.10;;;1.10;;
46701;SDS011;33449;50.712;7.124;2023-05-19T16:00:09;6.75;;;1.48;;
46701;SDS011;33449;50.712;7.124;2023-05-19T16:02:36;4.03;;;1.30;;
46701;SDS011;33449;50.712;7.124;2023-05-19T16:05:04;4.20;;;1.38;;
46701;SDS011;33449;50.712;7.124;2023-05-19T16:07:31;3.92;;;1.33;;
46701;SDS011;33449;50.712;7.124;2023-05-19T16:09:58;4.05;;;1.50;;
46701;SDS011;33449;50.712;7.124;2023-05-19T16:12:25;9.60;;;1.75;;
46701;SDS011;33449;50.712;7.124;2023-05-19T16:14:54;12.82;;;1.65;;
46701;SDS011;33449;50.712;7.124;2023-05-19T16:17:21;3.03;;;1.30;;
46701;SDS011;33449;50.712;7.124;2023-05-19T16:19:48;6.45;;;1.80;;
46701;SDS011;33449;50.712;7.124;2023-05-19T16:22:17;3.30;;;1.45;;
46701;SDS011;33449;50.712;7.124;2023-05-19T16:24:44;4.05;;;1.50;;
46701;SDS011;33449;50.712;7.124;2023-05-19T16:27:11;4.15;;;1.80;;
46701;SDS011;33449;50.712;7.124;2023-05-19T16:29:38;3.45;;;1.65;;
46701;SDS011;33449;50.712;7.124;2023-05-19T16:32:07;3.20;;;1.38;;
46701;SDS011;33449;50.712;7.124;2023-05-19T16:34:34;2.10;;;1.60;;
46701;SDS011;33449;50.712;7.124;2023-05-19T16:37:02;4.25;;;1.58;;
46701;SDS011;33449;50.712;7.124;2023-05-19T16:39:29;3.58;;;1.83;;
46701;SDS011;33449;50.712;7.124;2023-05-19T16:41:56;5.93;;;1.60;;
46701;SDS011;33449;50.712;7.124;2023-05-19T16:44:24;2.50;;;1.30;;
46701;SDS011;33449;50.712;7.124;2023-05-19T16:46:51;4.18;;;1.45;;
46701;SDS011;33449;50.712;7.124;2023-05-19T16:49:18;3.17;;;1.60;;
46701;SDS011;33449;50.712;7.124;2023-05-19T16:51:45;2.33;;;1.48;;
46701;SDS011;33449;50.712;7.124;2023-05-19T16:54:14;4.55;;;1.77;;
46701;SDS011;33449;50.712;7.124;2023-05-19T16:56:41;5.13;;;2.30;;